sensor_id;sensor_type;location;lat;lon;timestamp;pressure;altitude;pressure_sealevel;temperature;humidity
79309;BME280;68767;53.078;7.386;2023-06-22T00:00:06;102140.81;;;17.27;nan
79309;BME280;68767;53.078;7.386;2023-06-22T00:02:37;102149.28;;;17.25;nan
79309;BME280;68767;53.078;7.386;2023-06-22T00:05:04;102150.41;;;17.24;nan
79309;BME280;68767;53.078;7.386;2023-06-22T00:07:31;102149.00;;;17.18;nan
79309;BME280;68767;53.078;7.386;2023-06-22T00:09:58;102160.50;;;17.24;nan
79309;BME280;68767;53.078;7.386;2023-06-22T00:12:26;102166.56;;;17.21;nan
79309;BME280;68767;53.078;7.386;2023-06-22T00:14:53;102155.19;;;17.27;nan
79309;BME280;68767;53.078;7.386;2023-06-22T00:17:19;102148.50;;;17.25;nan
79309;BME280;68767;53.078;7.386;2023-06-22T00:19:47;102150.38;;;17.33;nan
79309;BME280;68767;53.078;7.386;2023-06-22T00:22:14;102145.97;;;17.20;nan
79309;BME280;68767;53.078;7.386;2023-06-22T00:24:41;102155.13;;;17.15;nan
79309;BME280;68767;53.078;7.386;2023-06-22T00:27:08;102153.09;;;17.03;nan
79309;BME280;68767;53.078;7.386;2023-06-22T00:29:35;102151.16;;;17.04;nan
79309;BME280;68767;53.078;7.386;2023-06-22T00:32:03;102154.44;;;16.97;nan
79309;BME280;68767;53.078;7.386;2023-06-22T00:34:30;102157.59;;;16.99;nan
79309;BME280;68767;53.078;7.386;2023-06-22T00:36:58;102151.38;;;16.99;nan
79309;BME280;68767;53.078;7.386;2023-06-22T00:39:26;102148.16;;;17.05;nan
79309;BME280;68767;53.078;7.386;2023-06-22T00:41:53;102148.78;;;17.02;nan
79309;BME280;68767;53.078;7.386;2023-06-22T00:44:20;102147.53;;;17.00;nan
79309;BME280;68767;53.078;7.386;2023-06-22T00:46:47;102149.91;;;17.01;nan
79309;BME280;68767;53.078;7.386;2023-06-22T00:49:14;102149.47;;;16.99;nan
79309;BME280;68767;53.078;7.386;2023-06-22T00:51:41;102149.25;;;17.04;nan
79309;BME280;68767;53.078;7.386;2023-06-22T00:54:12;102136.53;;;16.96;nan
79309;BME280;68767;53.078;7.386;2023-06-22T00:56:41;102139.50;;;17.03;nan
79309;BME280;68767;53.078;7.386;2023-06-22T00:59:09;102142.28;;;16.95;nan
79309;BME280;68767;53.078;7.386;2023-06-22T01:01:40;102132.09;;;16.92;nan
79309;BME280;68767;53.078;7.386;2023-06-22T01:04:08;102127.91;;;16.94;nan
79309;BME280;68767;53.078;7.386;2023-06-22T01:13:02;102131.97;;;16.88;nan
79309;BME280;68767;53.078;7.386;2023-06-22T01:15:36;102130.53;;;16.82;nan
79309;BME280;68767;53.078;7.386;2023-06-22T01:18:05;102127.88;;;16.73;nan
79309;BME280;68767;53.078;7.386;2023-06-22T01:20:36;102138.75;;;16.73;nan
79309;BME280;68767;53.078;7.386;2023-06-22T01:24:11;102129.00;;;16.72;nan
79309;BME280;68767;53.078;7.386;2023-06-22T01:26:28;102135.75;;;16.57;nan
79309;BME280;68767;53.078;7.386;2023-06-22T01:29:03;102122.81;;;16.54;nan
79309;BME280;68767;53.078;7.386;2023-06-22T01:31:32;102123.50;;;16.43;nan
79309;BME280;68767;53.078;7.386;2023-06-22T01:34:04;102113.56;;;16.55;nan
79309;BME280;68767;53.078;7.386;2023-06-22T01:36:33;102120.09;;;16.54;nan
79309;BME280;68767;53.078;7.386;2023-06-22T01:39:01;102112.78;;;16.55;nan
79309;BME280;68767;53.078;7.386;2023-06-22T01:41:34;102118.22;;;16.46;nan
79309;BME280;68767;53.078;7.386;2023-06-22T01:44:05;102122.06;;;16.37;nan
79309;BME280;68767;53.078;7.386;2023-06-22T01:46:35;102120.53;;;16.27;nan
79309;BME280;68767;53.078;7.386;2023-06-22T01:49:04;102117.34;;;16.25;nan
79309;BME280;68767;53.078;7.386;2023-06-22T01:51:32;102111.91;;;16.25;nan
79309;BME280;68767;53.078;7.386;2023-06-22T01:53:59;102113.81;;;16.33;nan
79309;BME280;68767;53.078;7.386;2023-06-22T01:56:28;102117.47;;;16.28;nan
79309;BME280;68767;53.078;7.386;2023-06-22T02:01:33;102100.78;;;16.18;nan
79309;BME280;68767;53.078;7.386;2023-06-22T02:04:06;102102.06;;;16.12;nan
79309;BME280;68767;53.078;7.386;2023-06-22T02:06:39;102103.94;;;16.20;nan
79309;BME280;68767;53.078;7.386;2023-06-22T02:09:13;102121.19;;;16.15;nan
79309;BME280;68767;53.078;7.386;2023-06-22T02:11:44;102130.13;;;16.16;nan
79309;BME280;68767;53.078;7.386;2023-06-22T02:14:15;102126.66;;;16.07;nan
79309;BME280;68767;53.078;7.386;2023-06-22T02:16:45;102130.47;;;16.06;nan
79309;BME280;68767;53.078;7.386;2023-06-22T02:19:13;102126.63;;;16.15;nan
79309;BME280;68767;53.078;7.386;2023-06-22T02:21:42;102128.72;;;16.01;nan
79309;BME280;68767;53.078;7.386;2023-06-22T02:24:09;102114.69;;;15.99;nan
79309;BME280;68767;53.078;7.386;2023-06-22T02:26:37;102119.00;;;16.00;nan
79309;BME280;68767;53.078;7.386;2023-06-22T02:29:06;102118.00;;;16.13;nan
79309;BME280;68767;53.078;7.386;2023-06-22T02:31:33;102119.63;;;16.06;nan
79309;BME280;68767;53.078;7.386;2023-06-22T02:34:03;102124.56;;;16.04;nan
79309;BME280;68767;53.078;7.386;2023-06-22T02:36:30;102118.69;;;15.93;nan
79309;BME280;68767;53.078;7.386;2023-06-22T02:39:00;102120.16;;;15.82;nan
79309;BME280;68767;53.078;7.386;2023-06-22T02:41:29;102127.31;;;15.69;nan
79309;BME280;68767;53.078;7.386;2023-06-22T02:43:56;102116.66;;;15.64;nan
79309;BME280;68767;53.078;7.386;2023-06-22T02:46:24;102117.75;;;15.80;nan
79309;BME280;68767;53.078;7.386;2023-06-22T02:48:52;102126.69;;;15.89;nan
79309;BME280;68767;53.078;7.386;2023-06-22T02:51:19;102111.53;;;15.80;nan
79309;BME280;68767;53.078;7.386;2023-06-22T02:53:46;102119.97;;;15.69;nan
79309;BME280;68767;53.078;7.386;2023-06-22T02:56:15;102124.78;;;15.72;nan
79309;BME280;68767;53.078;7.386;2023-06-22T02:58:43;102123.00;;;15.77;nan
79309;BME280;68767;53.078;7.386;2023-06-22T03:01:11;102122.22;;;15.76;nan
79309;BME280;68767;53.078;7.386;2023-06-22T03:03:45;102114.88;;;15.77;nan
79309;BME280;68767;53.078;7.386;2023-06-22T03:06:12;102118.56;;;15.81;nan
79309;BME280;68767;53.078;7.386;2023-06-22T03:08:41;102124.13;;;15.76;nan
79309;BME280;68767;53.078;7.386;2023-06-22T03:11:09;102130.34;;;15.76;nan
79309;BME280;68767;53.078;7.386;2023-06-22T03:13:36;102125.59;;;15.64;nan
79309;BME280;68767;53.078;7.386;2023-06-22T03:16:05;102118.53;;;15.63;nan
79309;BME280;68767;53.078;7.386;2023-06-22T03:18:32;102123.97;;;15.63;nan
79309;BME280;68767;53.078;7.386;2023-06-22T03:20:59;102123.66;;;15.65;nan
79309;BME280;68767;53.078;7.386;2023-06-22T03:23:26;102125.41;;;15.69;nan
79309;BME280;68767;53.078;7.386;2023-06-22T03:25:54;102131.13;;;15.77;nan
79309;BME280;68767;53.078;7.386;2023-06-22T03:28:22;102131.94;;;15.68;nan
79309;BME280;68767;53.078;7.386;2023-06-22T03:30:49;102135.91;;;15.71;nan
79309;BME280;68767;53.078;7.386;2023-06-22T03:33:16;102134.31;;;15.70;nan
79309;BME280;68767;53.078;7.386;2023-06-22T03:35:43;102138.34;;;15.72;nan
79309;BME280;68767;53.078;7.386;2023-06-22T03:38:10;102135.78;;;15.67;nan
79309;BME280;68767;53.078;7.386;2023-06-22T03:40:37;102146.25;;;15.60;nan
79309;BME280;68767;53.078;7.386;2023-06-22T03:43:04;102141.47;;;15.57;nan
79309;BME280;68767;53.078;7.386;2023-06-22T03:45:31;102143.88;;;15.59;nan
79309;BME280;68767;53.078;7.386;2023-06-22T03:48:00;102139.56;;;15.58;nan
79309;BME280;68767;53.078;7.386;2023-06-22T03:50:27;102136.25;;;15.69;nan
79309;BME280;68767;53.078;7.386;2023-06-22T03:52:55;102137.84;;;15.62;nan
79309;BME280;68767;53.078;7.386;2023-06-22T03:55:22;102137.22;;;15.65;nan
79309;BME280;68767;53.078;7.386;2023-06-22T03:57:49;102132.75;;;15.69;nan
79309;BME280;68767;53.078;7.386;2023-06-22T04:00:16;102134.97;;;15.84;nan
79309;BME280;68767;53.078;7.386;2023-06-22T04:02:43;102142.44;;;15.87;nan
79309;BME280;68767;53.078;7.386;2023-06-22T04:05:10;102138.94;;;15.87;nan
79309;BME280;68767;53.078;7.386;2023-06-22T04:07:37;102135.59;;;15.90;nan
79309;BME280;68767;53.078;7.386;2023-06-22T04:10:05;102131.91;;;16.03;nan
79309;BME280;68767;53.078;7.386;2023-06-22T04:12:33;102137.97;;;16.00;nan
79309;BME280;68767;53.078;7.386;2023-06-22T04:15:01;102133.69;;;15.99;nan
79309;BME280;68767;53.078;7.386;2023-06-22T04:17:28;102144.34;;;16.04;nan
79309;BME280;68767;53.078;7.386;2023-06-22T04:19:55;102134.91;;;16.10;nan
79309;BME280;68767;53.078;7.386;2023-06-22T04:22:22;102136.97;;;16.13;nan
79309;BME280;68767;53.078;7.386;2023-06-22T04:24:49;102144.47;;;16.16;nan
79309;BME280;68767;53.078;7.386;2023-06-22T04:27:19;102145.44;;;16.12;nan
79309;BME280;68767;53.078;7.386;2023-06-22T04:29:48;102146.06;;;16.17;nan
79309;BME280;68767;53.078;7.386;2023-06-22T04:32:16;102141.13;;;16.11;nan
79309;BME280;68767;53.078;7.386;2023-06-22T04:34:43;102140.50;;;16.22;nan
79309;BME280;68767;53.078;7.386;2023-06-22T04:37:10;102144.03;;;16.14;nan
79309;BME280;68767;53.078;7.386;2023-06-22T04:39:42;102134.91;;;16.19;nan
79309;BME280;68767;53.078;7.386;2023-06-22T04:42:10;102141.59;;;16.13;nan
79309;BME280;68767;53.078;7.386;2023-06-22T04:44:37;102147.97;;;16.25;nan
79309;BME280;68767;53.078;7.386;2023-06-22T04:47:04;102139.03;;;16.25;nan
79309;BME280;68767;53.078;7.386;2023-06-22T04:49:33;102134.75;;;16.24;nan
79309;BME280;68767;53.078;7.386;2023-06-22T04:52:03;102142.88;;;16.24;nan
79309;BME280;68767;53.078;7.386;2023-06-22T04:54:30;102146.97;;;16.30;nan
79309;BME280;68767;53.078;7.386;2023-06-22T04:57:05;102136.94;;;16.39;nan
79309;BME280;68767;53.078;7.386;2023-06-22T04:59:37;102148.41;;;16.36;nan
79309;BME280;68767;53.078;7.386;2023-06-22T05:02:08;102138.84;;;16.39;nan
79309;BME280;68767;53.078;7.386;2023-06-22T05:04:36;102141.84;;;16.37;nan
79309;BME280;68767;53.078;7.386;2023-06-22T05:07:06;102132.91;;;16.45;nan
79309;BME280;68767;53.078;7.386;2023-06-22T05:09:33;102131.44;;;16.56;nan
79309;BME280;68767;53.078;7.386;2023-06-22T05:12:02;102135.25;;;16.64;nan
79309;BME280;68767;53.078;7.386;2023-06-22T05:14:29;102133.59;;;16.80;nan
79309;BME280;68767;53.078;7.386;2023-06-22T05:16:57;102133.34;;;16.94;nan
79309;BME280;68767;53.078;7.386;2023-06-22T05:19:31;102123.25;;;17.24;nan
79309;BME280;68767;53.078;7.386;2023-06-22T05:22:00;102136.69;;;17.71;nan
79309;BME280;68767;53.078;7.386;2023-06-22T05:24:27;102136.09;;;17.99;nan
79309;BME280;68767;53.078;7.386;2023-06-22T05:26:54;102132.44;;;17.94;nan
79309;BME280;68767;53.078;7.386;2023-06-22T05:29:23;102137.06;;;17.82;nan
79309;BME280;68767;53.078;7.386;2023-06-22T05:31:50;102129.88;;;17.77;nan
79309;BME280;68767;53.078;7.386;2023-06-22T05:34:17;102131.81;;;17.56;nan
79309;BME280;68767;53.078;7.386;2023-06-22T05:36:44;102141.97;;;17.47;nan
79309;BME280;68767;53.078;7.386;2023-06-22T05:39:13;102134.38;;;17.52;nan
79309;BME280;68767;53.078;7.386;2023-06-22T05:41:41;102122.66;;;17.39;nan
79309;BME280;68767;53.078;7.386;2023-06-22T05:44:10;102133.00;;;17.46;nan
79309;BME280;68767;53.078;7.386;2023-06-22T05:46:40;102128.84;;;17.49;nan
79309;BME280;68767;53.078;7.386;2023-06-22T05:49:07;102122.06;;;17.55;nan
79309;BME280;68767;53.078;7.386;2023-06-22T05:51:34;102129.75;;;17.53;nan
79309;BME280;68767;53.078;7.386;2023-06-22T05:54:04;102130.94;;;17.64;nan
79309;BME280;68767;53.078;7.386;2023-06-22T05:56:32;102128.22;;;17.64;nan
79309;BME280;68767;53.078;7.386;2023-06-22T05:58:58;102123.44;;;17.61;nan
79309;BME280;68767;53.078;7.386;2023-06-22T06:01:26;102132.19;;;17.66;nan
79309;BME280;68767;53.078;7.386;2023-06-22T06:03:53;102142.59;;;17.85;nan
79309;BME280;68767;53.078;7.386;2023-06-22T06:06:20;102123.47;;;17.94;nan
79309;BME280;68767;53.078;7.386;2023-06-22T06:08:47;102129.72;;;17.94;nan
79309;BME280;68767;53.078;7.386;2023-06-22T06:11:14;102128.53;;;18.04;nan
79309;BME280;68767;53.078;7.386;2023-06-22T06:13:43;102124.03;;;18.20;nan
79309;BME280;68767;53.078;7.386;2023-06-22T06:16:10;102124.25;;;18.28;nan
79309;BME280;68767;53.078;7.386;2023-06-22T06:18:39;102126.75;;;18.33;nan
79309;BME280;68767;53.078;7.386;2023-06-22T06:21:06;102125.41;;;18.51;nan
79309;BME280;68767;53.078;7.386;2023-06-22T06:23:33;102131.53;;;18.48;nan
79309;BME280;68767;53.078;7.386;2023-06-22T06:26:00;102119.19;;;18.50;nan
79309;BME280;68767;53.078;7.386;2023-06-22T06:28:28;102128.03;;;18.60;nan
79309;BME280;68767;53.078;7.386;2023-06-22T06:30:55;102126.56;;;18.62;nan
79309;BME280;68767;53.078;7.386;2023-06-22T06:33:22;102127.94;;;18.68;nan
79309;BME280;68767;53.078;7.386;2023-06-22T06:35:51;102131.59;;;18.72;nan
79309;BME280;68767;53.078;7.386;2023-06-22T06:38:18;102137.00;;;18.85;nan
79309;BME280;68767;53.078;7.386;2023-06-22T06:40:45;102132.25;;;18.94;nan
79309;BME280;68767;53.078;7.386;2023-06-22T06:43:14;102142.34;;;18.93;nan
79309;BME280;68767;53.078;7.386;2023-06-22T06:45:41;102137.91;;;19.13;nan
79309;BME280;68767;53.078;7.386;2023-06-22T06:48:08;102136.66;;;19.11;nan
79309;BME280;68767;53.078;7.386;2023-06-22T06:50:36;102136.41;;;19.16;nan
79309;BME280;68767;53.078;7.386;2023-06-22T06:53:03;102125.59;;;19.31;nan
79309;BME280;68767;53.078;7.386;2023-06-22T06:55:30;102127.41;;;19.40;nan
79309;BME280;68767;53.078;7.386;2023-06-22T06:57:59;102130.06;;;19.52;nan
79309;BME280;68767;53.078;7.386;2023-06-22T07:00:26;102128.25;;;19.56;nan
79309;BME280;68767;53.078;7.386;2023-06-22T07:02:54;102129.13;;;19.72;nan
79309;BME280;68767;53.078;7.386;2023-06-22T07:05:21;102137.78;;;19.90;nan
79309;BME280;68767;53.078;7.386;2023-06-22T07:07:48;102133.25;;;20.10;nan
79309;BME280;68767;53.078;7.386;2023-06-22T07:10:15;102127.28;;;20.04;nan
79309;BME280;68767;53.078;7.386;2023-06-22T07:12:42;102118.22;;;20.32;nan
79309;BME280;68767;53.078;7.386;2023-06-22T07:15:10;102131.16;;;20.35;nan
79309;BME280;68767;53.078;7.386;2023-06-22T07:17:39;102131.47;;;20.45;nan
79309;BME280;68767;53.078;7.386;2023-06-22T07:20:08;102131.78;;;20.60;nan
79309;BME280;68767;53.078;7.386;2023-06-22T07:22:42;102127.66;;;20.50;nan
79309;BME280;68767;53.078;7.386;2023-06-22T07:25:09;102122.50;;;20.45;nan
79309;BME280;68767;53.078;7.386;2023-06-22T07:27:44;102127.38;;;20.39;nan
79309;BME280;68767;53.078;7.386;2023-06-22T07:30:12;102127.06;;;20.57;nan
79309;BME280;68767;53.078;7.386;2023-06-22T07:32:40;102126.06;;;20.65;nan
79309;BME280;68767;53.078;7.386;2023-06-22T07:35:08;102129.13;;;20.95;nan
79309;BME280;68767;53.078;7.386;2023-06-22T07:37:35;102122.38;;;21.08;nan
79309;BME280;68767;53.078;7.386;2023-06-22T07:40:02;102124.41;;;21.11;nan
79309;BME280;68767;53.078;7.386;2023-06-22T07:42:33;102123.75;;;21.18;nan
79309;BME280;68767;53.078;7.386;2023-06-22T07:45:01;102123.38;;;21.35;nan
79309;BME280;68767;53.078;7.386;2023-06-22T07:47:29;102109.34;;;21.56;nan
79309;BME280;68767;53.078;7.386;2023-06-22T07:49:58;102102.53;;;21.88;nan
79309;BME280;68767;53.078;7.386;2023-06-22T07:52:28;102103.50;;;21.77;nan
79309;BME280;68767;53.078;7.386;2023-06-22T07:54:55;102104.94;;;21.71;nan
79309;BME280;68767;53.078;7.386;2023-06-22T07:57:22;102105.97;;;21.63;nan
79309;BME280;68767;53.078;7.386;2023-06-22T07:59:49;102100.69;;;21.73;nan
79309;BME280;68767;53.078;7.386;2023-06-22T08:02:17;102086.06;;;21.85;nan
79309;BME280;68767;53.078;7.386;2023-06-22T08:04:44;102098.34;;;21.95;nan
79309;BME280;68767;53.078;7.386;2023-06-22T08:07:11;102088.81;;;21.85;nan
79309;BME280;68767;53.078;7.386;2023-06-22T08:09:38;102086.22;;;21.73;nan
79309;BME280;68767;53.078;7.386;2023-06-22T08:12:05;102082.47;;;21.81;nan
79309;BME280;68767;53.078;7.386;2023-06-22T08:14:32;102080.78;;;21.96;nan
79309;BME280;68767;53.078;7.386;2023-06-22T08:17:03;102072.59;;;22.19;nan
79309;BME280;68767;53.078;7.386;2023-06-22T08:19:33;102078.47;;;22.43;nan
79309;BME280;68767;53.078;7.386;2023-06-22T08:22:00;102076.53;;;22.44;nan
79309;BME280;68767;53.078;7.386;2023-06-22T08:24:27;102078.56;;;22.51;nan
79309;BME280;68767;53.078;7.386;2023-06-22T08:26:57;102074.97;;;22.73;nan
79309;BME280;68767;53.078;7.386;2023-06-22T08:29:24;102085.22;;;22.76;nan
79309;BME280;68767;53.078;7.386;2023-06-22T08:31:51;102076.53;;;22.70;nan
79309;BME280;68767;53.078;7.386;2023-06-22T08:34:18;102082.31;;;22.65;nan
79309;BME280;68767;53.078;7.386;2023-06-22T08:36:48;102072.00;;;22.55;nan
79309;BME280;68767;53.078;7.386;2023-06-22T08:39:19;102068.50;;;22.58;nan
79309;BME280;68767;53.078;7.386;2023-06-22T08:41:47;102077.78;;;22.77;nan
79309;BME280;68767;53.078;7.386;2023-06-22T08:44:17;102075.84;;;23.07;nan
79309;BME280;68767;53.078;7.386;2023-06-22T08:46:45;102074.19;;;23.29;nan
79309;BME280;68767;53.078;7.386;2023-06-22T08:49:12;102073.69;;;23.20;nan
79309;BME280;68767;53.078;7.386;2023-06-22T08:51:39;102068.66;;;23.25;nan
79309;BME280;68767;53.078;7.386;2023-06-22T08:54:06;102053.13;;;23.37;nan
79309;BME280;68767;53.078;7.386;2023-06-22T08:56:35;102064.56;;;23.42;nan
79309;BME280;68767;53.078;7.386;2023-06-22T08:59:02;102055.69;;;23.22;nan
79309;BME280;68767;53.078;7.386;2023-06-22T09:01:29;102052.28;;;23.33;nan
79309;BME280;68767;53.078;7.386;2023-06-22T09:03:56;102048.13;;;23.46;nan
79309;BME280;68767;53.078;7.386;2023-06-22T09:06:24;102046.91;;;23.43;nan
79309;BME280;68767;53.078;7.386;2023-06-22T09:08:51;102056.38;;;23.49;nan
79309;BME280;68767;53.078;7.386;2023-06-22T09:11:18;102043.50;;;23.53;nan
79309;BME280;68767;53.078;7.386;2023-06-22T09:13:45;102048.31;;;23.64;nan
79309;BME280;68767;53.078;7.386;2023-06-22T09:16:13;102051.84;;;23.61;nan
79309;BME280;68767;53.078;7.386;2023-06-22T09:18:40;102048.94;;;23.87;nan
79309;BME280;68767;53.078;7.386;2023-06-22T09:21:08;102045.47;;;23.94;nan
79309;BME280;68767;53.078;7.386;2023-06-22T09:23:38;102035.19;;;23.84;nan
79309;BME280;68767;53.078;7.386;2023-06-22T09:26:05;102028.28;;;24.00;nan
79309;BME280;68767;53.078;7.386;2023-06-22T09:28:36;102027.06;;;23.98;nan
79309;BME280;68767;53.078;7.386;2023-06-22T09:31:03;102013.50;;;24.19;nan
79309;BME280;68767;53.078;7.386;2023-06-22T09:33:30;102030.03;;;24.26;nan
79309;BME280;68767;53.078;7.386;2023-06-22T09:35:57;102023.53;;;24.49;nan
79309;BME280;68767;53.078;7.386;2023-06-22T09:38:23;102016.97;;;24.68;nan
79309;BME280;68767;53.078;7.386;2023-06-22T09:40:50;102022.44;;;24.60;nan
79309;BME280;68767;53.078;7.386;2023-06-22T09:43:17;102009.91;;;24.70;nan
79309;BME280;68767;53.078;7.386;2023-06-22T09:45:44;102012.31;;;24.79;nan
79309;BME280;68767;53.078;7.386;2023-06-22T09:48:11;102011.69;;;25.14;nan
79309;BME280;68767;53.078;7.386;2023-06-22T09:50:38;102012.94;;;25.48;nan
79309;BME280;68767;53.078;7.386;2023-06-22T09:53:05;102011.03;;;25.81;nan
79309;BME280;68767;53.078;7.386;2023-06-22T09:55:32;102001.19;;;25.98;nan
79309;BME280;68767;53.078;7.386;2023-06-22T09:57:59;102002.41;;;25.83;nan
79309;BME280;68767;53.078;7.386;2023-06-22T10:00:26;102001.22;;;26.01;nan
79309;BME280;68767;53.078;7.386;2023-06-22T10:02:54;101997.28;;;25.77;nan
79309;BME280;68767;53.078;7.386;2023-06-22T10:05:25;101989.00;;;25.95;nan
79309;BME280;68767;53.078;7.386;2023-06-22T10:07:52;101987.03;;;26.03;nan
79309;BME280;68767;53.078;7.386;2023-06-22T10:10:19;101987.44;;;25.98;nan
79309;BME280;68767;53.078;7.386;2023-06-22T10:12:48;101982.34;;;26.07;nan
79309;BME280;68767;53.078;7.386;2023-06-22T10:15:21;101985.88;;;25.83;nan
79309;BME280;68767;53.078;7.386;2023-06-22T10:17:48;101972.91;;;25.83;nan
79309;BME280;68767;53.078;7.386;2023-06-22T10:20:15;101972.88;;;26.12;nan
79309;BME280;68767;53.078;7.386;2023-06-22T10:22:44;101986.25;;;26.24;nan
79309;BME280;68767;53.078;7.386;2023-06-22T10:25:12;101979.06;;;26.55;nan
79309;BME280;68767;53.078;7.386;2023-06-22T10:27:40;101981.16;;;27.24;nan
79309;BME280;68767;53.078;7.386;2023-06-22T10:30:08;101982.38;;;27.16;nan
79309;BME280;68767;53.078;7.386;2023-06-22T10:32:37;101976.53;;;27.00;nan
79309;BME280;68767;53.078;7.386;2023-06-22T10:35:05;101981.69;;;26.94;nan
79309;BME280;68767;53.078;7.386;2023-06-22T10:37:32;101979.13;;;26.30;nan
79309;BME280;68767;53.078;7.386;2023-06-22T10:39:59;101973.44;;;26.91;nan
79309;BME280;68767;53.078;7.386;2023-06-22T10:42:26;101959.16;;;27.03;nan
79309;BME280;68767;53.078;7.386;2023-06-22T10:44:53;101958.38;;;27.06;nan
79309;BME280;68767;53.078;7.386;2023-06-22T10:47:20;101963.53;;;27.04;nan
79309;BME280;68767;53.078;7.386;2023-06-22T10:49:47;101969.59;;;26.67;nan
79309;BME280;68767;53.078;7.386;2023-06-22T10:52:14;101965.38;;;27.25;nan
79309;BME280;68767;53.078;7.386;2023-06-22T10:54:41;101956.59;;;27.37;nan
79309;BME280;68767;53.078;7.386;2023-06-22T10:57:08;101958.44;;;27.58;nan
79309;BME280;68767;53.078;7.386;2023-06-22T10:59:35;101955.41;;;27.90;nan
79309;BME280;68767;53.078;7.386;2023-06-22T11:02:03;101946.47;;;28.16;nan
79309;BME280;68767;53.078;7.386;2023-06-22T11:04:31;101943.47;;;28.38;nan
79309;BME280;68767;53.078;7.386;2023-06-22T11:06:58;101947.38;;;28.74;nan
79309;BME280;68767;53.078;7.386;2023-06-22T11:09:24;101945.16;;;28.62;nan
79309;BME280;68767;53.078;7.386;2023-06-22T11:11:55;101939.38;;;29.10;nan
79309;BME280;68767;53.078;7.386;2023-06-22T11:14:22;101927.44;;;28.87;nan
79309;BME280;68767;53.078;7.386;2023-06-22T11:16:49;101931.72;;;29.45;nan
79309;BME280;68767;53.078;7.386;2023-06-22T11:19:18;101931.50;;;29.59;nan
79309;BME280;68767;53.078;7.386;2023-06-22T11:21:45;101927.09;;;29.38;nan
79309;BME280;68767;53.078;7.386;2023-06-22T11:24:12;101927.06;;;30.09;nan
79309;BME280;68767;53.078;7.386;2023-06-22T11:26:39;101926.72;;;30.46;nan
79309;BME280;68767;53.078;7.386;2023-06-22T11:29:06;101924.53;;;30.38;nan
79309;BME280;68767;53.078;7.386;2023-06-22T11:31:36;101922.31;;;30.09;nan
79309;BME280;68767;53.078;7.386;2023-06-22T11:34:03;101926.53;;;29.24;nan
79309;BME280;68767;53.078;7.386;2023-06-22T11:36:30;101918.25;;;28.97;nan
79309;BME280;68767;53.078;7.386;2023-06-22T11:38:59;101924.97;;;29.93;nan
79309;BME280;68767;53.078;7.386;2023-06-22T11:41:26;101922.88;;;30.96;nan
79309;BME280;68767;53.078;7.386;2023-06-22T11:43:58;101908.03;;;31.19;nan
79309;BME280;68767;53.078;7.386;2023-06-22T11:46:25;101913.31;;;30.61;nan
79309;BME280;68767;53.078;7.386;2023-06-22T11:48:52;101909.53;;;31.40;nan
79309;BME280;68767;53.078;7.386;2023-06-22T11:51:19;101918.00;;;31.00;nan
79309;BME280;68767;53.078;7.386;2023-06-22T11:53:45;101918.31;;;30.70;nan
79309;BME280;68767;53.078;7.386;2023-06-22T11:56:12;101914.28;;;31.07;nan
79309;BME280;68767;53.078;7.386;2023-06-22T11:58:39;101911.81;;;30.76;nan
79309;BME280;68767;53.078;7.386;2023-06-22T12:01:06;101908.75;;;31.07;nan
79309;BME280;68767;53.078;7.386;2023-06-22T12:03:33;101905.19;;;30.14;nan
79309;BME280;68767;53.078;7.386;2023-06-22T12:06:00;101897.16;;;29.30;nan
79309;BME280;68767;53.078;7.386;2023-06-22T12:08:28;101896.75;;;29.04;nan
79309;BME280;68767;53.078;7.386;2023-06-22T12:10:54;101886.16;;;28.72;nan
79309;BME280;68767;53.078;7.386;2023-06-22T12:13:21;101887.31;;;28.75;nan
79309;BME280;68767;53.078;7.386;2023-06-22T12:15:48;101891.09;;;28.23;nan
79309;BME280;68767;53.078;7.386;2023-06-22T12:18:15;101892.91;;;28.03;nan
79309;BME280;68767;53.078;7.386;2023-06-22T12:20:42;101889.41;;;27.99;nan
79309;BME280;68767;53.078;7.386;2023-06-22T12:23:09;101878.44;;;28.26;nan
79309;BME280;68767;53.078;7.386;2023-06-22T12:25:36;101864.81;;;28.73;nan
79309;BME280;68767;53.078;7.386;2023-06-22T12:28:03;101863.28;;;29.22;nan
79309;BME280;68767;53.078;7.386;2023-06-22T12:30:33;101868.16;;;30.25;nan
79309;BME280;68767;53.078;7.386;2023-06-22T12:33:00;101860.59;;;31.75;nan
79309;BME280;68767;53.078;7.386;2023-06-22T12:35:27;101853.94;;;32.14;nan
79309;BME280;68767;53.078;7.386;2023-06-22T12:37:54;101849.66;;;31.68;nan
79309;BME280;68767;53.078;7.386;2023-06-22T12:40:21;101844.81;;;30.58;nan
79309;BME280;68767;53.078;7.386;2023-06-22T12:42:48;101840.28;;;30.68;nan
79309;BME280;68767;53.078;7.386;2023-06-22T12:45:19;101834.03;;;30.80;nan
79309;BME280;68767;53.078;7.386;2023-06-22T12:47:48;101837.66;;;31.10;nan
79309;BME280;68767;53.078;7.386;2023-06-22T12:50:16;101838.72;;;31.32;nan
79309;BME280;68767;53.078;7.386;2023-06-22T12:52:43;101839.16;;;32.18;nan
79309;BME280;68767;53.078;7.386;2023-06-22T12:55:10;101829.28;;;32.67;nan
79309;BME280;68767;53.078;7.386;2023-06-22T12:57:37;101821.53;;;32.37;nan
79309;BME280;68767;53.078;7.386;2023-06-22T13:00:05;101823.47;;;31.24;nan
79309;BME280;68767;53.078;7.386;2023-06-22T13:02:34;101818.19;;;30.08;nan
79309;BME280;68767;53.078;7.386;2023-06-22T13:05:02;101820.47;;;30.13;nan
79309;BME280;68767;53.078;7.386;2023-06-22T13:07:29;101817.59;;;29.57;nan
79309;BME280;68767;53.078;7.386;2023-06-22T13:09:56;101818.38;;;29.11;nan
79309;BME280;68767;53.078;7.386;2023-06-22T13:12:23;101827.50;;;27.93;nan
79309;BME280;68767;53.078;7.386;2023-06-22T13:14:50;101826.31;;;27.94;nan
79309;BME280;68767;53.078;7.386;2023-06-22T13:17:17;101820.09;;;27.45;nan
79309;BME280;68767;53.078;7.386;2023-06-22T13:19:44;101819.69;;;27.47;nan
79309;BME280;68767;53.078;7.386;2023-06-22T13:22:29;101816.19;;;27.39;nan